Time;durP1;ratioP1;P1;durP2;ratioP2;P2;SDS_P1;SDS_P2;PMS_P1;PMS_P2;Temp;Humidity;BMP_temperature;BMP_pressure;BME280_temperature;BME280_humidity;BME280_pressure;Samples;Min_cycle;Max_cycle;Signal;HPM_P1;HPM_P2
2021/09/18 00:23:58;;;;;;;20.88;6.47;;;37.50;49.00;;;;;;5078564;27;20409;-56
2021/09/18 00:26:25;;;;;;;20.33;6.18;;;36.00;81.30;;;;;;5081162;28;20509;-57
2021/09/18 00:28:51;;;;;;;25.55;6.50;;;;;;;;;;5082639;28;20423;-54
2021/09/18 00:31:18;;;;;;;18.90;6.22;;;;;;;;;;5076937;28;20024;-53
2021/09/18 00:33:44;;;;;;;19.98;6.45;;;36.10;52.60;;;;;;5078864;28;20537;-49
2021/09/18 00:36:11;;;;;;;15.95;6.13;;;36.30;40.90;;;;;;5079053;28;20504;-58
2021/09/18 00:38:38;;;;;;;18.23;6.43;;;36.40;40.40;;;;;;5080565;28;20077;-63
2021/09/18 00:41:04;;;;;;;24.52;6.72;;;36.30;40.40;;;;;;5078697;28;20055;-63
2021/09/18 00:43:31;;;;;;;15.57;6.40;;;;;;;;;;5076510;28;20484;-58
2021/09/18 00:45:58;;;;;;;11.43;6.20;;;36.60;53.10;;;;;;5075532;28;20029;-56
2021/09/18 00:48:24;;;;;;;17.60;6.68;;;36.30;40.20;;;;;;5078549;28;20037;-53
2021/09/18 00:50:51;;;;;;;18.95;7.10;;;36.30;40.80;;;;;;5078156;28;21708;-57
2021/09/18 00:53:17;;;;;;;27.27;7.57;;;;;;;;;;5079241;28;20486;-57
2021/09/18 00:55:44;;;;;;;14.95;5.97;;;;;;;;;;5079729;28;20489;-57
2021/09/18 00:58:11;;;;;;;15.50;6.68;;;36.20;62.70;;;;;;5075708;28;20379;-58
2021/09/18 01:00:38;;;;;;;18.23;6.50;;;;;;;;;;5078296;28;20107;-57
2021/09/18 01:03:05;;;;;;;18.30;5.82;;;;;;;;;;5082972;28;20024;-58
2021/09/18 01:05:31;;;;;;;20.38;6.22;;;36.50;51.50;;;;;;5080208;28;20136;-56
2021/09/18 01:07:58;;;;;;;19.88;6.35;;;;;;;;;;5079035;28;20077;-61
2021/09/18 01:10:25;;;;;;;18.05;6.13;;;36.30;42.10;;;;;;5078121;28;20028;-62
2021/09/18 01:13:11;;;;;;;14.60;5.68;;;36.00;58.40;;;;;;5079178;28;20036;-59
2021/09/18 01:15:40;;;;;;;12.50;5.50;;;;;;;;;;5076964;28;20064;-61
2021/09/18 01:18:07;;;;;;;18.30;5.30;;;;;;;;;;5079248;28;20036;-58
2021/09/18 01:20:34;;;;;;;19.58;5.50;;;;;;;;;;5077319;28;20041;-60
2021/09/18 01:23:03;;;;;;;14.65;5.32;;;;;;;;;;5079196;28;20115;-58
2021/09/18 01:25:33;;;;;;;18.35;6.35;;;36.20;35.60;;;;;;5063895;28;20036;-61
2021/09/18 01:28:00;;;;;;;15.07;5.80;;;36.20;36.20;;;;;;5065071;28;20085;-60
2021/09/18 01:30:28;;;;;;;17.17;5.60;;;;;;;;;;5063689;28;20106;-61
2021/09/18 01:32:56;;;;;;;13.23;5.25;;;35.90;70.00;;;;;;5065570;28;20101;-57
2021/09/18 01:35:23;;;;;;;15.85;5.38;;;36.00;68.70;;;;;;5065438;28;20021;-59
2021/09/18 01:37:50;;;;;;;16.95;5.68;;;36.10;35.30;;;;;;5064720;28;20073;-58
2021/09/18 01:40:27;;;;;;;25.88;6.10;;;36.10;34.40;;;;;;5062284;28;20073;-55
2021/09/18 01:42:54;;;;;;;19.48;6.18;;;36.10;32.30;;;;;;5063592;28;20133;-57
2021/09/18 01:45:21;;;;;;;21.05;5.53;;;36.10;30.70;;;;;;5066348;28;20069;-58
2021/09/18 01:47:49;;;;;;;27.48;5.65;;;36.00;29.60;;;;;;5061357;28;20077;-55
2021/09/18 01:50:23;;;;;;;25.75;5.20;;;35.70;41.10;;;;;;5062323;28;20024;-54
2021/09/18 01:52:52;;;;;;;16.58;5.70;;;36.00;48.50;;;;;;5066147;28;20051;-54
2021/09/18 01:55:19;;;;;;;21.75;4.97;;;36.10;48.10;;;;;;5065942;28;20024;-60
2021/09/18 01:57:48;;;;;;;19.90;5.50;;;36.10;40.30;;;;;;5065531;28;20117;-59
2021/09/18 02:00:16;;;;;;;15.38;5.53;;;;;;;;;;5061253;28;20027;-56
2021/09/18 02:02:43;;;;;;;31.75;8.50;;;36.10;27.30;;;;;;5067615;28;20020;-51
2021/09/18 02:05:10;;;;;;;35.53;10.38;;;36.10;28.50;;;;;;5060020;28;20454;-49
2021/09/18 02:07:37;;;;;;;22.88;9.50;;;36.00;28.00;;;;;;5065053;28;20130;-51
2021/09/18 02:10:10;;;;;;;30.90;8.25;;;36.00;29.40;;;;;;5063311;28;20100;-51
2021/09/18 02:12:37;;;;;;;35.85;6.90;;;36.00;27.30;;;;;;5064236;28;20094;-50
2021/09/18 02:15:05;;;;;;;34.22;7.97;;;35.90;27.20;;;;;;5063952;28;20032;-52
2021/09/18 02:17:32;;;;;;;42.38;8.27;;;35.90;26.50;;;;;;5058467;28;20104;-56
2021/09/18 02:19:59;;;;;;;41.72;8.63;;;;;;;;;;5067848;28;20160;-60
2021/09/18 02:22:25;;;;;;;37.53;7.88;;;;;;;;;;5062898;28;20104;-53
2021/09/18 02:24:52;;;;;;;22.65;7.15;;;;;;;;;;5062566;28;20401;-55
2021/09/18 02:27:19;;;;;;;21.27;7.15;;;;;;;;;;5060250;28;20025;-54
2021/09/18 02:29:45;;;;;;;32.28;6.97;;;35.70;59.70;;;;;;5066960;28;20032;-54
2021/09/18 02:32:12;;;;;;;31.17;9.23;;;35.60;28.30;;;;;;5058137;28;20521;-56
2021/09/18 02:34:39;;;;;;;41.92;9.68;;;35.60;28.30;;;;;;5061689;28;20065;-49
2021/09/18 02:37:05;;;;;;;22.88;10.52;;;;;;;;;;5063863;28;20103;-49
2021/09/18 02:39:32;;;;;;;41.33;10.55;;;35.50;28.30;;;;;;5064040;28;20077;-51
2021/09/18 02:41:58;;;;;;;34.70;9.15;;;35.50;28.50;;;;;;5062827;28;20080;-52
2021/09/18 02:44:25;;;;;;;32.00;9.93;;;35.60;38.10;;;;;;5063660;28;20083;-54
2021/09/18 02:46:52;;;;;;;34.75;10.25;;;;;;;;;;5060219;28;20024;-55
2021/09/18 02:49:18;;;;;;;28.85;9.35;;;;;;;;;;5067751;28;20024;-56
2021/09/18 02:51:45;;;;;;;21.83;8.93;;;35.40;29.90;;;;;;5061549;28;20386;-52
2021/09/18 02:54:11;;;;;;;25.00;8.57;;;;;;;;;;5062633;28;20044;-51
2021/09/18 02:56:38;;;;;;;26.50;8.25;;;;;;;;;;5063153;28;20094;-51
2021/09/18 02:59:05;;;;;;;24.40;7.32;;;;;;;;;;5063308;28;20074;-54
2021/09/18 03:01:31;;;;;;;27.38;7.15;;;;;;;;;;5061813;28;20073;-52
2021/09/18 03:03:58;;;;;;;39.28;7.97;;;;;;;;;;5062660;28;20028;-51
2021/09/18 03:06:25;;;;;;;28.25;8.13;;;;;;;;;;5067814;28;20379;-53
2021/09/18 03:08:51;;;;;;;24.80;8.10;;;;;;;;;;5063189;28;20032;-53
2021/09/18 03:11:18;;;;;;;34.58;8.25;;;;;;;;;;5065039;28;20493;-51
2021/09/18 03:13:44;;;;;;;23.63;8.20;;;34.90;35.10;;;;;;5062306;28;20051;-54
2021/09/18 03:16:11;;;;;;;33.30;7.88;;;34.70;58.90;;;;;;5066789;28;20093;-54
2021/09/18 03:18:38;;;;;;;24.77;6.15;;;34.80;34.80;;;;;;5061892;28;20116;-52
2021/09/18 03:21:04;;;;;;;31.15;7.13;;;34.70;36.60;;;;;;5063746;28;20513;-54
2021/09/18 03:23:31;;;;;;;23.92;6.00;;;34.70;36.00;;;;;;5061644;28;20379;-53
2021/09/18 03:25:57;;;;;;;26.75;7.10;;;34.80;38.90;;;;;;5058736;28;20028;-53
2021/09/18 03:28:24;;;;;;;22.92;6.22;;;34.20;59.40;;;;;;5061497;28;20572;-48
2021/09/18 03:30:51;;;;;;;29.13;6.93;;;34.60;36.70;;;;;;5062334;28;20083;-50
2021/09/18 03:33:17;;;;;;;26.67;7.72;;;34.50;36.90;;;;;;5064492;28;20210;-51
2021/09/18 03:35:44;;;;;;;33.97;8.10;;;34.40;36.50;;;;;;5061908;28;20096;-53
2021/09/18 03:38:11;;;;;;;27.40;7.85;;;34.30;37.00;;;;;;5065505;28;20207;-54
2021/09/18 03:40:37;;;;;;;25.45;7.53;;;34.30;37.10;;;;;;5065899;28;20081;-53
2021/09/18 03:43:04;;;;;;;27.95;8.05;;;34.30;36.90;;;;;;5060877;28;20130;-56
2021/09/18 03:45:31;;;;;;;28.98;7.20;;;34.20;36.90;;;;;;5059482;28;20112;-54
2021/09/18 03:47:58;;;;;;;33.63;8.10;;;34.10;40.30;;;;;;5061922;28;20020;-55
2021/09/18 03:50:24;;;;;;;30.33;8.43;;;34.10;37.30;;;;;;5060843;28;20542;-49
2021/09/18 03:52:51;;;;;;;23.38;7.93;;;34.10;37.90;;;;;;5066310;28;20097;-51
2021/09/18 03:55:17;;;;;;;27.27;8.35;;;34.00;38.50;;;;;;5055648;28;20114;-53
2021/09/18 03:57:44;;;;;;;23.45;6.97;;;33.90;38.20;;;;;;5057740;28;20487;-50
2021/09/18 04:00:11;;;;;;;16.13;6.43;;;33.80;34.90;;;;;;5057585;28;20086;-49
2021/09/18 04:02:38;;;;;;;18.17;5.75;;;33.80;32.50;;;;;;5062210;28;20167;-52
2021/09/18 04:05:05;;;;;;;15.23;5.38;;;33.90;31.00;;;;;;5059951;28;20533;-50
2021/09/18 04:07:31;;;;;;;18.58;5.30;;;33.80;30.40;;;;;;5060298;28;20100;-55
2021/09/18 04:09:58;;;;;;;16.80;4.82;;;33.70;44.20;;;;;;5061682;28;20073;-52
2021/09/18 04:12:25;;;;;;;15.93;5.60;;;;;;;;;;5061525;28;20096;-51
2021/09/18 04:14:52;;;;;;;13.98;5.07;;;;;;;;;;5064671;28;20028;-55
2021/09/18 04:17:18;;;;;;;11.90;4.70;;;33.80;27.20;;;;;;5063923;28;20031;-52
2021/09/18 04:19:45;;;;;;;20.23;6.13;;;33.60;54.30;;;;;;5062228;28;20023;-54
2021/09/18 04:22:11;;;;;;;36.97;9.68;;;33.60;27.60;;;;;;5061727;28;20113;-50
2021/09/18 04:24:38;;;;;;;37.20;11.20;;;33.60;28.30;;;;;;5062471;28;20131;-51
2021/09/18 04:27:05;;;;;;;18.63;9.18;;;;;;;;;;5066240;28;20021;-51
2021/09/18 04:29:32;;;;;;;24.55;8.40;;;33.40;29.10;;;;;;5062541;28;20032;-51
2021/09/18 04:31:58;;;;;;;15.90;7.55;;;33.40;29.30;;;;;;5068714;28;20562;-52
2021/09/18 04:34:25;;;;;;;17.52;6.93;;;33.40;30.50;;;;;;5064321;28;20126;-54
2021/09/18 04:36:51;;;;;;;17.45;6.72;;;33.40;30.00;;;;;;5062985;28;20076;-50
2021/09/18 04:39:18;;;;;;;13.20;5.15;;;33.20;29.60;;;;;;5062900;28;20021;-51
2021/09/18 04:41:46;;;;;;;13.23;5.38;;;;;;;;;;5062262;28;20064;-52
2021/09/18 04:44:12;;;;;;;20.65;5.32;;;33.20;28.90;;;;;;5058015;28;20111;-50
2021/09/18 04:46:39;;;;;;;11.77;5.38;;;33.20;30.30;;;;;;5066892;28;20021;-48
2021/09/18 04:49:05;;;;;;;13.48;6.00;;;33.10;29.90;;;;;;5063742;28;20500;-56
2021/09/18 04:51:32;;;;;;;12.43;5.50;;;33.10;29.70;;;;;;5061952;28;20069;-53
2021/09/18 04:53:59;;;;;;;13.82;5.38;;;32.90;45.00;;;;;;5061516;28;20159;-51
2021/09/18 04:56:25;;;;;;;18.88;5.72;;;33.10;32.50;;;;;;5062827;28;20077;-51
2021/09/18 04:58:52;;;;;;;21.40;5.47;;;33.00;28.90;;;;;;5061945;28;20075;-53
2021/09/18 05:01:18;;;;;;;20.90;5.57;;;32.40;40.80;;;;;;5065567;28;20039;-53
2021/09/18 05:03:45;;;;;;;17.88;6.05;;;33.00;65.80;;;;;;5066710;28;20059;-50
2021/09/18 05:06:11;;;;;;;16.92;7.00;;;32.90;29.40;;;;;;5066146;28;20085;-51
2021/09/18 05:08:38;;;;;;;24.23;6.55;;;32.90;30.00;;;;;;5065023;28;20084;-51
2021/09/18 05:11:04;;;;;;;19.40;6.30;;;32.90;29.50;;;;;;5067533;28;20119;-54
2021/09/18 05:13:31;;;;;;;18.15;6.63;;;32.80;29.80;;;;;;5065937;28;20587;-54
2021/09/18 05:15:57;;;;;;;23.65;6.13;;;32.80;29.50;;;;;;5064106;28;20085;-53
2021/09/18 05:18:24;;;;;;;19.58;5.28;;;32.80;29.70;;;;;;5068527;28;20104;-50
2021/09/18 05:20:50;;;;;;;17.42;5.50;;;32.70;29.80;;;;;;5066220;28;20080;-54
2021/09/18 05:23:17;;;;;;;20.42;5.95;;;32.70;29.60;;;;;;5066963;28;20171;-50
2021/09/18 05:25:43;;;;;;;24.83;6.28;;;32.70;29.80;;;;;;5067712;28;20134;-54
2021/09/18 05:28:10;;;;;;;16.88;5.13;;;32.60;30.30;;;;;;5066429;28;20077;-54
2021/09/18 05:30:37;;;;;;;20.25;5.90;;;32.60;29.50;;;;;;5065796;28;20173;-51
2021/09/18 05:33:03;;;;;;;18.20;5.25;;;32.40;44.50;;;;;;5064194;28;20125;-53
2021/09/18 05:35:30;;;;;;;16.88;5.60;;;32.40;29.50;;;;;;5062440;28;20070;-51
2021/09/18 05:37:56;;;;;;;26.70;5.75;;;32.40;29.90;;;;;;5064358;28;20068;-50
2021/09/18 05:40:25;;;;;;;16.80;5.47;;;32.40;30.10;;;;;;5065553;28;20073;-56
2021/09/18 05:42:52;;;;;;;20.27;5.55;;;32.40;29.90;;;;;;5064937;28;20134;-51
2021/09/18 05:45:19;;;;;;;27.02;5.25;;;32.40;30.00;;;;;;5065374;28;20073;-52
2021/09/18 05:47:45;;;;;;;21.13;5.80;;;32.40;30.30;;;;;;5064144;28;20077;-51
2021/09/18 05:50:12;;;;;;;22.83;5.68;;;32.40;30.10;;;;;;5064804;28;20065;-54
2021/09/18 05:52:39;;;;;;;19.83;5.55;;;32.30;30.50;;;;;;5068926;28;20100;-54
2021/09/18 05:55:06;;;;;;;23.73;5.50;;;32.30;30.60;;;;;;5065903;28;20087;-54
2021/09/18 05:57:33;;;;;;;13.70;5.63;;;32.30;30.50;;;;;;5061492;28;20080;-52
2021/09/18 06:00:00;;;;;;;21.95;4.90;;;32.30;30.70;;;;;;5065013;28;20111;-52
2021/09/18 06:02:26;;;;;;;20.05;5.72;;;32.30;30.50;;;;;;5061636;28;20514;-52
2021/09/18 06:04:54;;;;;;;25.75;5.65;;;32.30;30.10;;;;;;5060712;28;20137;-52
2021/09/18 06:07:21;;;;;;;21.25;6.60;;;32.20;30.50;;;;;;5062219;28;20085;-53
2021/09/18 06:09:47;;;;;;;19.92;5.72;;;32.20;29.90;;;;;;5061311;28;20138;-52
2021/09/18 06:12:14;;;;;;;18.88;8.30;;;32.20;30.10;;;;;;5063000;28;20180;-51
2021/09/18 06:14:41;;;;;;;21.90;7.35;;;32.20;30.30;;;;;;5064934;28;20082;-50
2021/09/18 06:17:07;;;;;;;28.75;6.97;;;32.10;29.90;;;;;;5062660;28;20068;-53
2021/09/18 06:19:34;;;;;;;21.13;6.28;;;;;;;;;;5059453;28;20069;-54
2021/09/18 06:22:01;;;;;;;14.38;6.00;;;32.20;32.00;;;;;;5056359;28;20447;-50
2021/09/18 06:24:28;;;;;;;19.15;6.03;;;31.80;45.70;;;;;;5061095;28;20071;-53
2021/09/18 06:26:55;;;;;;;16.45;5.38;;;31.80;46.40;;;;;;5057905;28;20480;-51
2021/09/18 06:29:21;;;;;;;18.50;5.82;;;;;;;;;;5064863;28;20071;-53
2021/09/18 06:31:48;;;;;;;19.13;5.93;;;;;;;;;;5063610;28;20363;-50
2021/09/18 06:34:15;;;;;;;12.18;5.78;;;;;;;;;;5061867;28;20029;-53
2021/09/18 06:36:41;;;;;;;20.17;5.90;;;;;;;;;;5061543;28;20470;-52
2021/09/18 06:39:08;;;;;;;16.10;5.72;;;32.10;30.70;;;;;;5061584;28;20090;-52
2021/09/18 06:41:34;;;;;;;16.52;5.82;;;;;;;;;;5064672;28;20032;-55
2021/09/18 06:44:01;;;;;;;20.52;6.32;;;32.00;32.20;;;;;;5061118;28;20031;-51
2021/09/18 06:46:27;;;;;;;17.50;7.22;;;32.00;31.60;;;;;;5060859;28;20146;-48
2021/09/18 06:48:54;;;;;;;16.85;6.63;;;32.00;31.70;;;;;;5061940;28;20074;-50
2021/09/18 06:51:21;;;;;;;15.80;5.68;;;31.80;31.60;;;;;;5060480;28;20082;-52
2021/09/18 06:53:47;;;;;;;15.20;5.80;;;31.60;55.20;;;;;;5060460;28;20112;-51
2021/09/18 06:56:13;;;;;;;29.73;5.50;;;31.50;46.10;;;;;;5058732;28;20020;-50
2021/09/18 06:58:40;;;;;;;21.90;5.82;;;31.70;31.70;;;;;;5065058;28;20076;-52
2021/09/18 07:01:07;;;;;;;19.50;5.63;;;31.70;30.30;;;;;;5060448;28;20530;-55
2021/09/18 07:03:33;;;;;;;16.80;6.30;;;31.60;54.20;;;;;;5064954;28;20069;-52
2021/09/18 07:06:01;;;;;;;21.27;6.20;;;31.70;30.80;;;;;;5064048;28;20102;-52
2021/09/18 07:08:28;;;;;;;18.17;5.63;;;31.70;31.20;;;;;;5059903;28;20109;-50
2021/09/18 07:10:55;;;;;;;18.20;5.97;;;31.60;31.70;;;;;;5056467;28;20085;-52
2021/09/18 07:13:21;;;;;;;16.45;5.25;;;31.60;31.50;;;;;;5062864;28;20093;-50
2021/09/18 07:15:48;;;;;;;24.17;6.35;;;31.50;31.90;;;;;;5061948;28;20077;-52
2021/09/18 07:18:14;;;;;;;24.15;5.88;;;31.50;31.70;;;;;;5059501;28;20143;-52
2021/09/18 07:20:41;;;;;;;21.35;5.90;;;31.50;31.50;;;;;;5063139;28;20553;-52
2021/09/18 07:23:07;;;;;;;23.35;6.15;;;31.60;32.20;;;;;;5064368;28;20150;-53
2021/09/18 07:25:34;;;;;;;21.40;5.45;;;31.60;32.00;;;;;;5061324;28;20081;-51
2021/09/18 07:28:01;;;;;;;20.90;5.95;;;31.60;32.00;;;;;;5060455;28;20081;-49
2021/09/18 07:30:27;;;;;;;14.68;5.90;;;31.40;31.80;;;;;;5060536;28;20112;-52
2021/09/18 07:32:54;;;;;;;18.70;6.05;;;30.70;56.90;;;;;;5056673;28;20113;-54
2021/09/18 07:35:21;;;;;;;17.02;6.22;;;31.20;31.80;;;;;;5061826;28;20081;-51
2021/09/18 07:37:47;;;;;;;24.35;5.88;;;31.20;32.50;;;;;;5061844;28;20104;-48
2021/09/18 07:40:14;;;;;;;17.27;6.00;;;31.10;33.30;;;;;;5060216;28;20065;-52
2021/09/18 07:42:41;;;;;;;16.35;6.68;;;31.20;32.50;;;;;;5060403;28;20040;-54
2021/09/18 07:45:09;;;;;;;15.95;6.07;;;30.50;45.20;;;;;;5065028;28;20065;-51
2021/09/18 07:47:36;;;;;;;15.80;5.63;;;30.90;51.10;;;;;;5062697;28;20077;-50
2021/09/18 07:50:03;;;;;;;26.00;6.20;;;31.00;32.00;;;;;;5064114;28;20021;-50
2021/09/18 07:52:30;;;;;;;11.70;6.03;;;31.20;46.50;;;;;;5062594;28;20108;-52
2021/09/18 07:54:56;;;;;;;21.30;5.53;;;31.00;31.00;;;;;;5060646;28;20028;-51
2021/09/18 07:57:23;;;;;;;20.48;5.35;;;31.10;31.60;;;;;;5061879;28;20036;-52
2021/09/18 07:59:49;;;;;;;15.20;4.90;;;;;;;;;;5059631;28;20462;-49
2021/09/18 08:02:16;;;;;;;15.88;6.20;;;30.90;55.60;;;;;;5062635;28;20075;-54
2021/09/18 08:04:43;;;;;;;15.88;5.72;;;31.00;33.70;;;;;;5061707;28;20024;-50
2021/09/18 08:07:10;;;;;;;13.77;5.40;;;31.00;31.70;;;;;;5059822;28;20573;-49
2021/09/18 08:09:36;;;;;;;13.85;5.10;;;30.50;41.70;;;;;;5060015;28;20096;-51
2021/09/18 08:12:03;;;;;;;11.02;4.80;;;;;;;;;;5063596;28;20037;-49
2021/09/18 08:14:29;;;;;;;12.32;4.75;;;31.50;63.60;;;;;;5063759;28;20044;-50
2021/09/18 08:16:56;;;;;;;28.17;4.90;;;31.00;31.30;;;;;;5063402;28;20023;-53
2021/09/18 08:19:23;;;;;;;12.00;4.85;;;30.70;34.90;;;;;;5067028;28;20397;-54
2021/09/18 08:21:49;;;;;;;16.08;5.07;;;30.60;40.10;;;;;;5065249;28;20032;-48
2021/09/18 08:24:20;;;;;;;15.70;5.00;;;30.80;31.10;;;;;;5058314;28;20088;-49
2021/09/18 08:26:47;;;;;;;9.73;4.97;;;30.70;42.20;;;;;;5062490;28;20033;-50
2021/09/18 08:29:14;;;;;;;14.02;4.60;;;;;;;;;;5061713;28;20428;-54
2021/09/18 08:31:41;;;;;;;15.75;4.53;;;;;;;;;;5063316;28;20056;-52
2021/09/18 08:34:07;;;;;;;12.68;4.50;;;;;;;;;;5061958;28;20021;-50
2021/09/18 08:36:34;;;;;;;19.20;4.65;;;;;;;;;;5066068;28;20017;-52
2021/09/18 08:39:01;;;;;;;18.45;4.35;;;;;;;;;;5066490;28;20385;-53
2021/09/18 08:41:30;;;;;;;14.75;4.50;;;30.30;56.20;;;;;;5062953;28;20035;-51
2021/09/18 08:43:57;;;;;;;18.88;5.20;;;30.40;30.80;;;;;;5064478;28;20055;-53
2021/09/18 08:46:26;;;;;;;9.07;4.65;;;30.40;31.30;;;;;;5061685;28;20077;-52
2021/09/18 08:48:54;;;;;;;14.60;5.00;;;;;;;;;;5068277;28;20175;-51
2021/09/18 08:51:22;;;;;;;13.95;4.88;;;30.40;38.20;;;;;;5068126;28;20371;-50
2021/09/18 08:53:48;;;;;;;9.27;4.43;;;30.50;32.70;;;;;;5066136;28;20047;-53
2021/09/18 08:56:16;;;;;;;13.85;5.85;;;30.00;57.50;;;;;;5066420;28;20077;-49
2021/09/18 08:58:43;;;;;;;16.20;5.10;;;30.40;33.30;;;;;;5064844;28;20108;-53
2021/09/18 09:01:12;;;;;;;13.65;4.97;;;;;;;;;;5067720;28;20436;-51
2021/09/18 09:03:40;;;;;;;18.75;5.25;;;30.10;33.20;;;;;;5066486;28;20052;-52
2021/09/18 09:06:08;;;;;;;14.43;5.13;;;;;;;;;;5061529;28;20028;-49
